Time;durP1;ratioP1;P1;durP2;ratioP2;P2;SDS_P1;SDS_P2;PMS_P1;PMS_P2;Temp;Humidity;BMP_temperature;BMP_pressure;BME280_temperature;BME280_humidity;BME280_pressure;Samples;Min_cycle;Max_cycle;Signal;HPM_P1;HPM_P2
2021/05/30 00:01:04;;;;;;;5.53;2.80;;;;;;;23.42;45.69;101133.00;144994;579;5002;-76
2021/05/30 00:03:31;;;;;;;3.40;2.90;;;;;;;23.39;45.67;101130.38;144994;564;5002;-77
2021/05/30 00:05:57;;;;;;;8.13;2.70;;;;;;;23.31;45.24;101134.94;144994;566;5002;-77
2021/05/30 00:08:25;;;;;;;5.45;2.65;;;;;;;23.30;45.29;101131.41;144994;569;5002;-76
2021/05/30 00:10:51;;;;;;;3.95;2.62;;;;;;;23.29;45.46;101132.31;144994;575;5002;-78
2021/05/30 00:13:18;;;;;;;2.85;2.40;;;;;;;23.32;45.46;101126.06;144994;571;5002;-77
2021/05/30 00:15:46;;;;;;;3.42;2.60;;;;;;;23.34;44.94;101132.25;144994;595;5002;-78
2021/05/30 00:18:14;;;;;;;3.92;2.53;;;;;;;23.37;45.19;101129.56;144994;641;5002;-78
2021/05/30 00:20:40;;;;;;;4.78;2.67;;;;;;;23.35;45.00;101129.56;144994;566;5002;-78
2021/05/30 00:23:07;;;;;;;7.87;2.35;;;;;;;23.35;44.69;101132.22;144994;591;5002;-77
2021/05/30 00:25:34;;;;;;;3.28;2.45;;;;;;;23.37;44.97;101129.56;144994;604;5002;-77
2021/05/30 00:28:00;;;;;;;3.20;2.40;;;;;;;23.40;44.68;101125.97;144994;630;5002;-76
2021/05/30 00:30:27;;;;;;;3.30;2.42;;;;;;;23.41;44.51;101123.28;144994;576;5002;-76
2021/05/30 00:32:53;;;;;;;3.15;2.22;;;;;;;23.42;44.50;101124.19;144994;585;5002;-77
2021/05/30 00:35:19;;;;;;;2.97;2.60;;;;;;;23.41;44.40;101117.97;144994;605;5002;-77
2021/05/30 00:37:46;;;;;;;3.90;2.55;;;;;;;23.41;44.18;101120.63;144994;615;5002;-77
2021/05/30 00:40:13;;;;;;;4.30;2.50;;;;;;;23.34;44.65;101124.31;144994;605;5002;-76
2021/05/30 00:42:40;;;;;;;3.90;2.42;;;;;;;23.30;44.46;101123.47;144994;569;5002;-78
2021/05/30 00:45:10;;;;;;;3.53;2.45;;;;;;;23.28;44.12;101129.69;144994;587;5002;-77
2021/05/30 00:47:37;;;;;;;3.17;2.90;;;;;;;23.27;44.22;101128.81;144994;601;5002;-78
2021/05/30 00:50:05;;;;;;;5.35;2.75;;;;;;;23.22;44.40;101127.16;144994;591;5002;-77
2021/05/30 00:52:34;;;;;;;4.30;2.92;;;;;;;23.18;44.53;101140.44;144994;570;4566;-77
2021/05/30 00:55:02;;;;;;;3.60;2.80;;;;;;;23.19;44.80;101143.94;144994;574;4572;-76
2021/05/30 00:57:29;;;;;;;3.05;2.75;;;;;;;23.18;44.88;101128.97;144994;610;4572;-76
2021/05/30 00:59:56;;;;;;;2.92;2.58;;;;;;;23.25;44.82;101127.09;144992;590;6003;-76
2021/05/30 01:02:23;;;;;;;4.93;2.42;;;;;;;23.21;44.50;101131.59;144992;565;6002;-77
2021/05/30 01:04:50;;;;;;;2.67;2.30;;;;;;;23.13;44.67;101133.44;144992;572;6002;-76
2021/05/30 01:07:17;;;;;;;5.57;2.45;;;;;;;23.05;44.95;101130.91;144992;576;6002;-77
2021/05/30 01:09:46;;;;;;;5.72;2.72;;;;;;;23.00;44.82;101128.34;144992;566;6002;-76
2021/05/30 01:12:15;;;;;;;4.62;2.30;;;;;;;23.05;44.80;101130.91;144992;575;6002;-76
2021/05/30 01:14:42;;;;;;;3.97;2.47;;;;;;;23.09;44.66;101127.34;144992;564;6002;-77
2021/05/30 01:17:10;;;;;;;5.62;2.75;;;;;;;23.14;44.76;101121.97;144992;679;6002;-76
2021/05/30 01:19:39;;;;;;;5.00;2.33;;;;;;;23.16;44.48;101115.75;144992;593;6002;-76
2021/05/30 01:22:09;;;;;;;4.43;2.10;;;;;;;23.17;44.18;101112.19;144992;594;6002;-76
2021/05/30 01:24:38;;;;;;;2.92;2.22;;;;;;;23.21;44.16;101112.16;144992;589;6002;-76
2021/05/30 01:27:05;;;;;;;5.35;2.20;;;;;;;23.23;43.96;101110.38;144992;570;6002;-77
2021/05/30 01:29:32;;;;;;;2.83;2.10;;;;;;;23.21;43.13;101105.09;144992;573;6002;-77
2021/05/30 01:31:59;;;;;;;3.03;2.15;;;;;;;23.18;43.89;101111.31;144992;744;6002;-77
2021/05/30 01:34:26;;;;;;;3.37;2.17;;;;;;;23.23;43.99;101113.88;144992;640;6002;-77
2021/05/30 01:36:53;;;;;;;2.45;1.90;;;;;;;23.30;43.86;101112.88;144992;628;6002;-77
2021/05/30 01:39:20;;;;;;;4.68;2.30;;;;;;;23.35;43.61;101113.69;144992;569;6002;-77
2021/05/30 01:41:47;;;;;;;4.60;2.17;;;;;;;23.39;43.49;101109.19;144992;590;6002;-76
2021/05/30 01:44:13;;;;;;;4.85;2.30;;;;;;;23.39;43.37;101114.50;144992;594;6002;-77
2021/05/30 01:46:40;;;;;;;2.53;1.98;;;;;;;23.38;43.18;101112.75;144992;625;6002;-77
2021/05/30 01:49:06;;;;;;;4.95;2.60;;;;;;;23.38;43.37;101109.22;144992;632;6002;-77
2021/05/30 01:51:34;;;;;;;4.95;2.25;;;;;;;23.31;43.32;101106.69;144992;560;6002;-75
2021/05/30 01:54:06;;;;;;;3.45;2.28;;;;;;;23.28;43.21;101111.16;144992;633;6002;-77
2021/05/30 01:59:19;;;;;;;2.78;2.33;;;;;;;23.26;42.99;101112.97;144992;573;6004;-75
2021/05/30 02:01:45;;;;;;;8.93;2.75;;;;;;;23.21;42.90;101105.09;144992;588;6004;-75
2021/05/30 02:04:13;;;;;;;3.05;2.17;;;;;;;23.20;42.69;101108.63;144992;573;6004;-75
2021/05/30 02:06:42;;;;;;;2.90;2.22;;;;;;;23.19;43.11;101112.16;144992;577;6004;-76
2021/05/30 02:09:09;;;;;;;3.62;2.10;;;;;;;23.14;42.66;101109.59;144992;583;6004;-77
2021/05/30 02:11:38;;;;;;;4.62;2.28;;;;;;;23.07;42.92;101110.56;144992;579;6004;-76
2021/05/30 02:14:05;;;;;;;4.60;2.20;;;;;;;23.04;42.88;101115.91;144992;670;6004;-76
2021/05/30 02:16:32;;;;;;;3.22;2.12;;;;;;;23.03;42.86;101108.84;144992;624;6004;-76
2021/05/30 02:19:01;;;;;;;5.37;2.03;;;;;;;23.02;42.85;101125.66;144992;581;6004;-76
2021/05/30 02:21:44;;;;;;;4.85;2.30;;;;;;;22.98;42.84;101116.88;144992;627;6004;-77
2021/05/30 02:24:12;;;;;;;4.18;2.12;;;;;;;22.93;42.80;101124.03;144992;607;6004;-77
2021/05/30 02:26:39;;;;;;;3.50;2.40;;;;;;;22.92;42.88;101110.81;144992;572;6004;-76
2021/05/30 02:29:07;;;;;;;4.68;2.30;;;;;;;22.92;42.87;101121.37;144992;604;6004;-76
2021/05/30 02:31:33;;;;;;;5.40;2.33;;;;;;;22.92;42.85;101118.75;144992;577;6004;-77
2021/05/30 02:34:00;;;;;;;3.30;2.40;;;;;;;22.75;41.57;101125.16;144992;600;6004;-76
2021/05/30 02:36:28;;;;;;;2.72;2.30;;;;;;;22.71;42.99;101130.53;144992;643;6004;-76
2021/05/30 02:38:55;;;;;;;3.90;2.00;;;;;;;22.72;43.04;101127.88;144992;561;6004;-77
2021/05/30 02:41:23;;;;;;;3.35;2.35;;;;;;;22.72;42.54;101125.22;144992;567;6004;-76
2021/05/30 02:43:50;;;;;;;4.53;2.42;;;;;;;22.64;41.58;101127.09;144992;641;6004;-77
2021/05/30 02:46:17;;;;;;;2.60;2.10;;;;;;;22.59;42.96;101135.09;144992;575;6004;-76
2021/05/30 02:48:43;;;;;;;3.28;2.20;;;;;;;22.63;42.91;101134.12;144992;612;6004;-76
2021/05/30 02:51:10;;;;;;;2.50;2.30;;;;;;;22.67;43.02;101131.44;144992;655;6004;-76
2021/05/30 02:53:36;;;;;;;5.72;2.30;;;;;;;22.61;41.29;101127.12;144992;588;6004;-78
2021/05/30 02:56:03;;;;;;;4.45;2.15;;;;;;;22.54;41.28;101136.03;144992;692;6004;-77
2021/05/30 02:58:31;;;;;;;4.40;2.30;;;;;;;22.49;42.99;101144.03;144992;619;6004;-76
2021/05/30 03:00:59;;;;;;;3.80;2.37;;;;;;;22.54;43.12;101138.69;144992;677;6004;-76
2021/05/30 03:03:25;;;;;;;6.10;2.22;;;;;;;22.60;42.85;101135.97;144992;578;6004;-76
2021/05/30 03:05:52;;;;;;;5.18;2.35;;;;;;;22.67;42.88;101148.22;144992;599;6004;-76
2021/05/30 03:08:18;;;;;;;3.12;2.60;;;;;;;22.72;42.41;101140.22;144992;569;6004;-77
2021/05/30 03:10:45;;;;;;;3.83;2.12;;;;;;;22.79;42.59;101142.75;144992;702;6004;-78
2021/05/30 03:13:12;;;;;;;3.65;2.20;;;;;;;22.80;42.28;101138.34;144992;574;6004;-78
2021/05/30 03:15:41;;;;;;;4.65;2.17;;;;;;;22.79;42.41;101136.59;144992;591;6004;-79
2021/05/30 03:18:07;;;;;;;2.60;2.40;;;;;;;22.72;42.47;101135.81;144992;659;6004;-77
2021/05/30 03:20:34;;;;;;;6.25;2.08;;;;;;;22.70;42.07;101137.59;144992;632;6004;-77
2021/05/30 03:23:01;;;;;;;3.92;2.10;;;;;;;22.68;42.63;101135.84;144992;642;6004;-77
2021/05/30 03:25:28;;;;;;;3.90;2.35;;;;;;;22.64;42.26;101135.03;144992;614;6004;-75
2021/05/30 03:27:55;;;;;;;2.78;2.30;;;;;;;22.65;42.38;101131.47;144992;584;6005;-76
2021/05/30 03:30:21;;;;;;;3.33;2.37;;;;;;;22.69;42.32;101145.56;144991;575;6000;-76
2021/05/30 03:32:49;;;;;;;4.60;2.30;;;;;;;22.72;42.21;101149.03;144992;612;6002;-77
2021/05/30 03:35:15;;;;;;;2.90;2.20;;;;;;;22.74;42.12;101141.06;144992;564;6002;-75
2021/05/30 03:37:42;;;;;;;4.40;2.33;;;;;;;22.75;42.33;101149.00;144992;572;6002;-76
2021/05/30 03:40:25;;;;;;;4.37;2.20;;;;;;;22.73;41.87;101149.91;144992;590;6002;-77
2021/05/30 03:42:53;;;;;;;4.43;2.08;;;;;;;22.68;42.10;101147.31;144992;616;6002;-77
2021/05/30 03:45:23;;;;;;;3.95;2.17;;;;;;;22.57;42.19;101157.16;144992;617;6002;-76
2021/05/30 03:47:50;;;;;;;3.83;2.20;;;;;;;22.49;42.38;101159.03;144992;569;6002;-77
2021/05/30 03:50:18;;;;;;;3.45;2.10;;;;;;;22.42;42.49;101152.97;144992;598;6002;-77
2021/05/30 03:52:45;;;;;;;3.45;2.25;;;;;;;22.36;42.69;101153.03;144992;593;6002;-76
2021/05/30 03:55:15;;;;;;;2.65;2.00;;;;;;;22.40;42.43;101160.91;144992;638;6002;-77
2021/05/30 03:57:42;;;;;;;3.45;1.90;;;;;;;22.44;42.26;101162.59;144992;566;6002;-76
2021/05/30 04:00:11;;;;;;;4.55;2.28;;;;;;;22.52;42.51;101161.66;144992;593;6002;-77
2021/05/30 04:02:38;;;;;;;5.03;2.10;;;;;;;22.57;42.19;101166.00;144992;582;6002;-76
2021/05/30 04:05:05;;;;;;;4.35;2.12;;;;;;;22.63;42.51;101162.37;144992;573;6002;-76
2021/05/30 04:07:36;;;;;;;4.50;2.45;;;;;;;22.72;42.43;101166.69;144992;658;6002;-75
2021/05/30 04:10:06;;;;;;;3.72;2.37;;;;;;;22.80;42.35;101170.97;144992;566;6002;-77
2021/05/30 04:12:34;;;;;;;4.93;2.45;;;;;;;22.85;42.30;101162.09;144992;589;6002;-77
2021/05/30 04:15:01;;;;;;;4.65;2.35;;;;;;;22.91;42.29;101167.31;144992;595;6002;-76
2021/05/30 04:17:27;;;;;;;4.75;2.28;;;;;;;22.84;42.55;101177.09;144992;617;6002;-76
2021/05/30 04:19:56;;;;;;;7.87;2.35;;;;;;;22.90;42.39;101170.84;144992;583;6002;-75
2021/05/30 04:22:23;;;;;;;5.07;2.30;;;;;;;22.98;42.19;101175.13;144992;570;6002;-77
2021/05/30 04:24:49;;;;;;;4.35;2.70;;;;;;;23.06;42.55;101171.50;144992;649;6002;-78
2021/05/30 04:27:16;;;;;;;4.20;2.37;;;;;;;23.16;42.48;101178.41;144992;646;6002;-76
2021/05/30 04:29:43;;;;;;;3.70;2.37;;;;;;;23.25;42.40;101175.63;144992;581;6002;-77
2021/05/30 04:32:09;;;;;;;3.35;2.55;;;;;;;23.33;42.35;101184.34;144992;581;6002;-76
2021/05/30 04:34:36;;;;;;;3.05;2.30;;;;;;;23.42;42.41;101175.38;144992;616;6002;-77
2021/05/30 04:37:03;;;;;;;3.95;2.80;;;;;;;23.48;42.48;101174.38;144992;606;6002;-77
2021/05/30 04:39:31;;;;;;;4.60;2.65;;;;;;;23.49;42.28;101170.84;144992;597;6002;-77
2021/05/30 04:42:03;;;;;;;4.07;2.55;;;;;;;23.52;42.62;101173.44;144992;583;6002;-77
2021/05/30 04:44:31;;;;;;;3.72;2.22;;;;;;;23.57;42.29;101170.72;144992;585;6002;-78
2021/05/30 04:46:57;;;;;;;5.45;2.80;;;;;;;23.60;42.39;101166.22;144991;563;6002;-76
2021/05/30 04:49:24;;;;;;;3.37;2.70;;;;;;;23.64;42.62;101175.00;144992;618;6002;-77
2021/05/30 04:51:50;;;;;;;5.80;2.33;;;;;;;23.67;42.63;101182.91;144992;627;6002;-77
2021/05/30 04:54:17;;;;;;;6.00;3.08;;;;;;;23.73;42.71;101177.50;144992;587;6002;-77
2021/05/30 04:56:43;;;;;;;6.03;2.70;;;;;;;23.72;42.79;101176.63;144992;603;6002;-78
2021/05/30 04:59:10;;;;;;;3.58;2.65;;;;;;;23.72;42.45;101181.06;144992;638;6002;-77
2021/05/30 05:01:39;;;;;;;6.00;2.67;;;;;;;23.75;42.65;101181.00;144992;563;6002;-77
2021/05/30 05:04:06;;;;;;;3.97;2.83;;;;;;;23.78;42.73;101183.56;144992;624;6002;-77
2021/05/30 05:06:33;;;;;;;5.43;2.83;;;;;;;23.81;42.54;101187.97;144992;612;6002;-76
2021/05/30 05:08:59;;;;;;;6.25;2.60;;;;;;;23.83;42.59;101195.03;144992;572;6002;-77
2021/05/30 05:11:26;;;;;;;3.10;2.60;;;;;;;23.87;42.95;101187.88;144991;634;6002;-77
2021/05/30 05:13:53;;;;;;;7.32;2.67;;;;;;;23.87;42.70;101188.75;144992;623;6002;-77
2021/05/30 05:16:20;;;;;;;2.72;2.50;;;;;;;23.90;42.86;101195.78;144992;582;6002;-78
2021/05/30 05:18:46;;;;;;;3.85;2.40;;;;;;;23.90;42.64;101194.00;144992;565;6002;-78
2021/05/30 05:21:13;;;;;;;4.93;2.40;;;;;;;23.95;42.89;101195.72;144992;626;6002;-77
2021/05/30 05:23:39;;;;;;;4.05;2.47;;;;;;;24.01;42.60;101207.06;144992;592;6002;-77
2021/05/30 05:26:06;;;;;;;5.72;2.67;;;;;;;24.02;42.79;101205.28;144992;570;6002;-77
2021/05/30 05:28:34;;;;;;;5.15;3.00;;;;;;;23.85;44.68;101206.47;144992;649;6002;-77
2021/05/30 05:31:01;;;;;;;5.75;2.85;;;;;;;23.88;43.33;101210.88;144992;629;6002;-76
2021/05/30 05:33:27;;;;;;;5.12;2.83;;;;;;;23.89;43.69;101213.50;144992;584;6002;-79
2021/05/30 05:35:54;;;;;;;6.18;3.28;;;;;;;23.92;43.87;101217.84;144992;592;6002;-77
2021/05/30 05:38:20;;;;;;;3.72;2.55;;;;;;;23.98;44.30;101216.87;144992;576;6002;-76
2021/05/30 05:40:47;;;;;;;7.43;3.20;;;;;;;23.96;44.23;101223.94;144992;623;6002;-78
2021/05/30 05:43:13;;;;;;;8.73;3.17;;;;;;;23.95;44.74;101228.38;144992;585;6002;-77
2021/05/30 05:45:40;;;;;;;5.40;2.78;;;;;;;24.02;44.56;101230.03;144992;569;6002;-77
2021/05/30 05:48:12;;;;;;;5.57;2.85;;;;;;;24.06;44.89;101229.06;144992;589;6002;-77
2021/05/30 05:50:39;;;;;;;2.90;2.58;;;;;;;24.13;45.15;101232.47;144992;606;6002;-76
2021/05/30 05:53:06;;;;;;;5.82;2.80;;;;;;;23.83;46.05;101226.84;144992;563;6002;-76
2021/05/30 05:55:34;;;;;;;3.30;2.70;;;;;;;23.89;46.33;101232.03;144992;606;6002;-76
2021/05/30 05:58:01;;;;;;;5.68;3.20;;;;;;;23.92;46.22;101227.59;144992;595;6002;-75
2021/05/30 06:00:28;;;;;;;6.03;3.08;;;;;;;23.94;46.25;101231.97;144992;587;6002;-76
2021/05/30 06:02:55;;;;;;;3.47;2.70;;;;;;;23.92;46.57;101228.44;144991;592;6002;-78
2021/05/30 06:05:23;;;;;;;4.53;2.65;;;;;;;23.99;46.22;101235.41;144992;592;6002;-77
2021/05/30 06:07:54;;;;;;;3.80;2.75;;;;;;;24.02;46.24;101235.34;144992;686;6002;-77
2021/05/30 06:10:25;;;;;;;6.47;2.83;;;;;;;23.93;46.59;101230.22;144991;589;6002;-79
2021/05/30 06:12:53;;;;;;;4.25;3.35;;;;;;;23.92;47.80;101238.19;144992;595;6002;-77
2021/05/30 06:15:24;;;;;;;6.00;3.05;;;;;;;23.99;46.51;101240.72;144992;564;6002;-78
2021/05/30 06:17:55;;;;;;;5.18;3.20;;;;;;;24.03;46.98;101242.38;144992;585;6002;-77
2021/05/30 06:20:23;;;;;;;3.85;3.10;;;;;;;24.10;47.03;101237.88;144992;592;6002;-77
2021/05/30 06:22:50;;;;;;;3.95;2.87;;;;;;;24.12;46.63;101241.34;144992;569;6002;-76
2021/05/30 06:25:17;;;;;;;4.25;2.78;;;;;;;23.97;46.90;101241.62;144992;594;6010;-76
2021/05/30 06:27:44;;;;;;;3.47;2.87;;;;;;;23.98;47.08;101238.94;144992;589;6002;-77
2021/05/30 06:30:11;;;;;;;4.78;3.20;;;;;;;23.78;49.07;101251.63;144992;583;6002;-78
2021/05/30 06:32:38;;;;;;;4.35;2.95;;;;;;;23.73;47.58;101247.31;144992;597;6002;-78
2021/05/30 06:35:06;;;;;;;6.18;3.30;;;;;;;23.78;47.56;101247.19;144992;575;6002;-77
2021/05/30 06:37:33;;;;;;;5.03;3.10;;;;;;;23.73;47.84;101246.41;144992;564;6002;-77
2021/05/30 06:39:59;;;;;;;3.45;3.15;;;;;;;23.81;47.78;101252.44;144992;580;6002;-78
2021/05/30 06:42:26;;;;;;;6.90;3.30;;;;;;;23.80;48.19;101249.81;144992;615;6002;-78
2021/05/30 06:44:53;;;;;;;6.35;3.15;;;;;;;23.85;47.71;101255.97;144992;656;6002;-77
2021/05/30 06:47:19;;;;;;;9.55;3.03;;;;;;;23.86;48.29;101255.94;144991;589;6002;-78
2021/05/30 06:49:48;;;;;;;5.60;3.10;;;;;;;23.90;48.04;101241.72;144992;573;6002;-77
2021/05/30 06:52:15;;;;;;;4.95;2.75;;;;;;;23.99;47.84;101243.34;144992;614;6002;-77
2021/05/30 06:54:41;;;;;;;4.93;2.80;;;;;;;24.05;48.02;101242.34;144992;581;6002;-78
2021/05/30 06:57:07;;;;;;;4.07;2.95;;;;;;;24.14;47.73;101239.53;144992;564;6002;-77
2021/05/30 06:59:35;;;;;;;5.35;2.87;;;;;;;24.22;47.55;101240.28;144992;573;6002;-77
2021/05/30 07:02:01;;;;;;;7.05;3.40;;;;;;;24.26;48.92;101241.97;144992;563;6002;-77
2021/05/30 07:04:28;;;;;;;4.45;3.12;;;;;;;24.23;48.04;101234.06;144992;570;6002;-77
2021/05/30 07:06:55;;;;;;;5.18;3.15;;;;;;;24.26;47.58;101234.00;144992;563;6002;-77
2021/05/30 07:09:21;;;;;;;4.57;3.30;;;;;;;24.32;47.76;101227.69;144992;586;6002;-77
2021/05/30 07:11:47;;;;;;;5.15;3.85;;;;;;;24.40;47.58;101224.91;144992;655;6002;-77
2021/05/30 07:14:15;;;;;;;5.45;3.60;;;;;;;24.42;47.64;101225.75;144993;592;6002;-77
2021/05/30 07:16:42;;;;;;;5.70;3.25;;;;;;;24.39;47.67;101221.38;144993;702;6002;-76
2021/05/30 07:19:09;;;;;;;5.65;2.95;;;;;;;24.37;47.80;101225.84;144993;630;6002;-77
2021/05/30 07:21:35;;;;;;;5.60;2.67;;;;;;;24.37;47.94;101222.31;144993;569;6002;-77
2021/05/30 07:24:02;;;;;;;4.47;2.90;;;;;;;24.33;47.73;101223.28;144993;585;6002;-78
2021/05/30 07:26:28;;;;;;;4.45;3.10;;;;;;;24.32;47.78;101226.84;144993;606;6002;-76
2021/05/30 07:28:55;;;;;;;7.80;3.40;;;;;;;24.20;48.11;101225.31;144993;721;6002;-77
2021/05/30 07:31:21;;;;;;;7.10;3.25;;;;;;;24.23;47.83;101227.91;144993;588;6002;-76
2021/05/30 07:33:48;;;;;;;7.93;3.75;;;;;;;24.21;48.05;101229.69;144993;589;6002;-77
2021/05/30 07:36:16;;;;;;;9.00;3.45;;;;;;;24.17;47.90;101222.72;144993;579;6002;-77
2021/05/30 07:38:43;;;;;;;7.90;3.00;;;;;;;24.15;47.85;101227.16;144993;587;6002;-76
2021/05/30 07:41:09;;;;;;;6.75;3.20;;;;;;;24.01;49.00;101225.62;144993;564;6002;-77
2021/05/30 07:43:36;;;;;;;5.80;3.20;;;;;;;23.96;48.43;101219.53;144993;609;6002;-76
2021/05/30 07:46:04;;;;;;;4.72;2.87;;;;;;;23.90;48.29;101220.50;144992;599;6002;-76
2021/05/30 07:48:30;;;;;;;4.70;2.90;;;;;;;23.70;48.75;101228.78;144992;564;6002;-76
2021/05/30 07:50:57;;;;;;;4.00;3.12;;;;;;;23.55;50.54;101232.56;144992;656;6002;-78
2021/05/30 07:53:23;;;;;;;5.25;3.15;;;;;;;23.54;49.25;101232.56;144992;565;6002;-79
2021/05/30 07:55:50;;;;;;;5.82;3.10;;;;;;;23.57;49.17;101231.66;144992;579;6002;-79
2021/05/30 07:58:16;;;;;;;7.47;4.37;;;;;;;23.43;49.69;101234.53;144993;635;6002;-77
2021/05/30 08:00:43;;;;;;;4.62;3.80;;;;;;;23.42;49.42;101233.66;144993;588;6002;-77
2021/05/30 08:03:10;;;;;;;4.30;3.45;;;;;;;23.39;49.36;101233.72;144993;588;6002;-77
2021/05/30 08:05:36;;;;;;;4.65;3.30;;;;;;;23.33;49.65;101231.16;144993;604;6002;-76
2021/05/30 08:08:04;;;;;;;6.62;3.25;;;;;;;23.32;49.50;101232.94;144993;577;6002;-78
2021/05/30 08:10:30;;;;;;;4.72;3.05;;;;;;;23.33;51.05;101236.44;144993;587;6002;-77
2021/05/30 08:12:56;;;;;;;5.43;3.20;;;;;;;23.32;50.66;101237.31;144993;601;6002;-77
2021/05/30 08:15:23;;;;;;;9.38;3.47;;;;;;;23.42;49.82;101238.97;144993;610;6002;-78
2021/05/30 08:17:52;;;;;;;5.00;3.12;;;;;;;23.48;49.84;101230.91;144993;585;6002;-75
2021/05/30 08:20:23;;;;;;;4.35;3.12;;;;;;;23.52;49.83;101229.09;144993;563;6002;-76
2021/05/30 08:22:50;;;;;;;4.18;3.33;;;;;;;23.50;50.29;101234.41;144993;582;6002;-78
2021/05/30 08:25:18;;;;;;;5.87;3.30;;;;;;;23.51;49.90;101232.63;144993;596;6002;-77
2021/05/30 08:27:45;;;;;;;3.83;2.92;;;;;;;23.48;49.78;101230.91;144993;583;6002;-77
2021/05/30 08:30:12;;;;;;;4.85;2.90;;;;;;;23.50;50.32;101234.41;144993;563;6002;-79
2021/05/30 08:32:39;;;;;;;6.25;2.70;;;;;;;23.56;49.88;101233.44;144993;603;6002;-81
2021/05/30 08:35:07;;;;;;;3.70;3.03;;;;;;;23.41;50.30;101226.59;144993;609;6002;-79
2021/05/30 08:37:36;;;;;;;6.95;3.03;;;;;;;23.52;49.81;101235.25;144993;579;6002;-79
2021/05/30 08:40:06;;;;;;;5.18;2.97;;;;;;;23.52;49.82;101232.59;144993;564;6002;-79
2021/05/30 08:42:32;;;;;;;3.42;2.70;;;;;;;23.57;49.78;101229.00;144993;595;6002;-77
2021/05/30 08:44:59;;;;;;;16.62;11.63;;;;;;;23.60;49.60;101236.91;144993;658;6002;-80
2021/05/30 08:47:25;;;;;;;12.18;7.85;;;;;;;23.55;49.67;101235.19;144993;646;6003;-79
2021/05/30 08:49:51;;;;;;;9.40;5.87;;;;;;;23.55;49.59;101224.59;144992;602;6002;-80
2021/05/30 08:52:18;;;;;;;7.00;4.15;;;;;;;23.58;49.70;101228.12;144994;565;5002;-77
2021/05/30 08:54:45;;;;;;;8.57;5.18;;;;;;;23.58;49.56;101221.03;144993;570;5002;-77
2021/05/30 08:57:11;;;;;;;5.35;2.83;;;;;;;23.58;49.58;101229.00;144994;589;5002;-76
2021/05/30 08:59:40;;;;;;;5.32;3.55;;;;;;;23.60;49.58;101226.31;144994;570;5002;-77
2021/05/30 09:02:13;;;;;;;6.32;3.95;;;;;;;23.57;49.72;101216.63;144994;592;5002;-77
2021/05/30 09:05:01;;;;;;;4.72;3.00;;;;;;;23.55;49.71;101223.75;144994;598;5002;-77
2021/05/30 09:07:44;;;;;;;4.55;3.00;;;;;;;23.64;49.86;101225.34;144994;599;5002;-77
2021/05/30 09:10:23;;;;;;;3.75;2.62;;;;;;;23.52;50.04;101221.13;144994;564;5006;-76
2021/05/30 09:13:07;;;;;;;4.60;2.90;;;;;;;23.47;49.92;101225.62;144994;591;5002;-78
2021/05/30 09:16:06;;;;;;;4.60;3.22;;;;;;;23.31;50.66;101231.16;144994;609;5002;-78
2021/05/30 09:18:35;;;;;;;4.50;3.00;;;;;;;23.28;51.16;101236.50;144994;597;5002;-78
2021/05/30 09:21:09;;;;;;;7.90;4.50;;;;;;;23.31;50.39;101238.25;144994;621;5002;-77
2021/05/30 09:23:40;;;;;;;6.03;4.20;;;;;;;23.25;50.69;101236.56;144994;615;5002;-80
2021/05/30 09:26:24;;;;;;;6.65;3.25;;;;;;;23.34;50.67;101243.50;144994;725;5002;-77
2021/05/30 09:29:08;;;;;;;6.22;3.97;;;;;;;23.27;50.97;101253.28;144994;596;5004;-77
2021/05/30 09:31:54;;;;;;;5.32;3.60;;;;;;;23.32;50.98;101242.63;144994;602;5005;-77
2021/05/30 09:34:46;;;;;;;4.93;3.35;;;;;;;23.40;51.10;101242.50;144994;592;5004;-77
2021/05/30 09:37:17;;;;;;;4.05;3.25;;;;;;;23.35;53.57;101247.88;144994;604;5002;-77
2021/05/30 09:39:45;;;;;;;3.17;2.78;;;;;;;23.31;51.71;101238.25;144994;618;5002;-78
2021/05/30 09:42:26;;;;;;;4.65;3.40;;;;;;;23.41;51.44;101238.97;144994;594;5002;-76
2021/05/30 09:45:00;;;;;;;6.90;5.30;;;;;;;23.49;52.04;101237.94;144994;607;5002;-75
2021/05/30 09:47:34;;;;;;;4.70;4.18;;;;;;;23.50;52.18;101236.19;144994;566;5002;-77
2021/05/30 09:50:01;;;;;;;4.35;3.72;;;;;;;23.55;50.96;101235.19;144994;636;5002;-78
2021/05/30 09:52:49;;;;;;;5.45;3.85;;;;;;;23.52;52.09;101234.38;144994;585;5002;-77
2021/05/30 09:55:26;;;;;;;7.05;5.10;;;;;;;23.55;51.24;101239.63;144994;588;5002;-77
2021/05/30 09:58:19;;;;;;;5.25;3.20;;;;;;;23.65;50.86;101233.28;144994;596;5002;-77
2021/05/30 10:01:11;;;;;;;4.30;3.25;;;;;;;23.62;50.75;101227.16;144994;570;5002;-76
2021/05/30 10:03:38;;;;;;;6.82;3.12;;;;;;;23.58;51.36;101234.28;144994;575;5004;-77
2021/05/30 10:06:05;;;;;;;3.83;3.20;;;;;;;23.52;51.26;101240.56;144994;574;5004;-77
2021/05/30 10:08:31;;;;;;;3.97;3.12;;;;;;;23.55;50.81;101229.91;144994;645;5004;-76
2021/05/30 10:10:58;;;;;;;5.18;3.42;;;;;;;23.63;51.14;101234.22;144994;595;5004;-77
2021/05/30 10:13:25;;;;;;;3.78;3.30;;;;;;;23.60;50.82;101229.84;144994;577;5004;-76
2021/05/30 10:15:52;;;;;;;8.05;4.62;;;;;;;23.68;50.55;101227.06;144994;678;5004;-76
2021/05/30 10:18:39;;;;;;;5.00;3.78;;;;;;;23.78;50.59;101217.16;144994;619;5004;-78
2021/05/30 10:21:08;;;;;;;6.45;4.30;;;;;;;23.70;51.37;101214.66;144994;597;5004;-78
2021/05/30 10:23:40;;;;;;;5.18;4.18;;;;;;;23.79;51.24;101219.81;144994;609;5004;-78
2021/05/30 10:26:25;;;;;;;5.32;3.78;;;;;;;23.87;50.88;101215.25;144994;568;5004;-78
2021/05/30 10:29:10;;;;;;;7.05;4.15;;;;;;;24.02;50.49;101224.75;144994;632;5004;-77
2021/05/30 10:31:39;;;;;;;4.47;3.90;;;;;;;24.12;50.82;101230.75;144994;594;5004;-78
2021/05/30 10:34:24;;;;;;;6.07;4.57;;;;;;;24.13;50.48;101226.31;144994;568;5004;-77
2021/05/30 10:37:24;;;;;;;5.95;4.25;;;;;;;24.06;51.17;101221.13;144994;574;5004;-76
2021/05/30 10:39:51;;;;;;;6.30;3.15;;;;;;;24.13;50.41;101224.53;144994;584;5004;-76
2021/05/30 10:42:23;;;;;;;5.57;3.25;;;;;;;23.92;51.19;101219.63;144994;575;5004;-76
2021/05/30 10:45:01;;;;;;;4.78;3.30;;;;;;;23.84;51.25;101219.75;144994;618;5004;-76
2021/05/30 10:48:20;;;;;;;12.10;9.32;;;;;;;23.85;51.46;101225.03;144994;576;5004;-78
2021/05/30 10:53:50;;;;;;;5.05;2.95;;;;;;;23.76;53.37;101226.94;144994;598;5003;-77
2021/05/30 10:56:37;;;;;;;4.10;3.70;;;;;;;23.66;53.17;101231.53;144994;579;5002;-77
2021/05/30 10:59:25;;;;;;;9.85;6.90;;;;;;;23.65;52.40;101229.75;144994;594;5004;-77
2021/05/30 11:01:53;;;;;;;5.62;3.53;;;;;;;23.64;53.10;101228.00;144994;625;5002;-75
2021/05/30 11:04:33;;;;;;;5.05;3.10;;;;;;;23.55;52.59;101229.91;144994;677;5002;-77
2021/05/30 11:07:08;;;;;;;4.97;3.03;;;;;;;23.65;52.70;101240.34;144994;586;5002;-76
2021/05/30 11:10:11;;;;;;;3.95;2.67;;;;;;;23.60;52.28;101232.47;144994;594;5002;-77
2021/05/30 11:13:14;;;;;;;3.53;2.90;;;;;;;23.55;52.87;101229.03;144994;594;5004;-77
2021/05/30 11:15:41;;;;;;;3.70;2.60;;;;;;;23.57;52.92;101231.66;144994;569;5002;-76
2021/05/30 11:18:07;;;;;;;4.12;2.78;;;;;;;23.55;53.22;101229.91;144994;592;5002;-75
2021/05/30 11:20:45;;;;;;;3.58;3.20;;;;;;;23.47;53.49;101229.16;144994;621;5002;-77
2021/05/30 11:23:14;;;;;;;5.40;3.15;;;;;;;23.47;52.99;101228.28;144994;575;5002;-78
2021/05/30 11:25:49;;;;;;;3.50;3.20;;;;;;;23.51;52.74;101224.69;144994;572;5002;-77
2021/05/30 11:28:21;;;;;;;4.60;3.30;;;;;;;23.50;52.98;101215.88;144994;607;5002;-77
2021/05/30 11:31:18;;;;;;;5.00;3.03;;;;;;;23.65;52.66;101213.84;144994;592;5002;-78
2021/05/30 11:33:53;;;;;;;6.57;3.10;;;;;;;23.56;52.35;101222.84;144994;588;5004;-76
2021/05/30 11:36:26;;;;;;;;;;;;;;;23.51;51.77;101227.31;144998;908;5004;-76
2021/05/30 11:38:56;;;;;;;3.78;2.97;;;;;;;23.43;52.51;101218.62;144998;656;5000;-77
2021/05/30 11:41:51;;;;;;;7.68;3.53;;;;;;;23.45;52.58;101227.41;144994;578;5004;-77
2021/05/30 11:44:27;;;;;;;3.55;3.03;;;;;;;23.55;52.15;101219.31;144994;561;5004;-76
2021/05/30 11:46:55;;;;;;;5.47;4.37;;;;;;;23.41;53.37;101221.31;144994;580;5004;-77
2021/05/30 11:49:30;;;;;;;4.72;3.20;;;;;;;23.48;53.63;101216.78;144994;593;5004;-77
2021/05/30 11:52:20;;;;;;;7.18;3.35;;;;;;;23.46;53.00;101214.16;144994;591;5004;-76